sensor_id;sensor_type;location;lat;lon;timestamp;temperature;humidity
21121;DHT22;12519;43.318;21.898;2024-03-06T00:03:12;11.6;88.0
21121;DHT22;12519;43.318;21.898;2024-03-06T00:07:48;11.6;88.0
21121;DHT22;12519;43.318;21.898;2024-03-06T00:12:25;11.6;88.0
21121;DHT22;12519;43.318;21.898;2024-03-06T00:17:02;11.6;88.0
21121;DHT22;12519;43.318;21.898;2024-03-06T00:21:39;11.5;88.0
21121;DHT22;12519;43.318;21.898;2024-03-06T00:26:15;11.5;88.0
21121;DHT22;12519;43.318;21.898;2024-03-06T00:30:52;11.4;88.0
21121;DHT22;12519;43.318;21.898;2024-03-06T00:35:28;11.4;88.0
21121;DHT22;12519;43.318;21.898;2024-03-06T00:40:06;11.3;88.0
21121;DHT22;12519;43.318;21.898;2024-03-06T00:44:46;11.3;88.0
21121;DHT22;12519;43.318;21.898;2024-03-06T00:49:23;11.2;88.0
21121;DHT22;12519;43.318;21.898;2024-03-06T00:53:59;11.2;88.0
21121;DHT22;12519;43.318;21.898;2024-03-06T00:58:35;11.2;88.0
21121;DHT22;12519;43.318;21.898;2024-03-06T01:03:12;11.0;89.0
21121;DHT22;12519;43.318;21.898;2024-03-06T01:07:48;11.0;89.0
21121;DHT22;12519;43.318;21.898;2024-03-06T01:12:25;10.9;89.0
21121;DHT22;12519;43.318;21.898;2024-03-06T01:17:01;10.9;89.0
21121;DHT22;12519;43.318;21.898;2024-03-06T01:21:38;10.9;89.0
21121;DHT22;12519;43.318;21.898;2024-03-06T01:26:14;10.9;89.0
21121;DHT22;12519;43.318;21.898;2024-03-06T01:30:50;10.8;89.0
21121;DHT22;12519;43.318;21.898;2024-03-06T01:35:26;10.8;89.0
21121;DHT22;12519;43.318;21.898;2024-03-06T01:40:04;10.9;89.0
21121;DHT22;12519;43.318;21.898;2024-03-06T01:44:45;10.9;89.0
21121;DHT22;12519;43.318;21.898;2024-03-06T01:49:25;10.9;89.0
21121;DHT22;12519;43.318;21.898;2024-03-06T01:54:04;10.9;89.0
21121;DHT22;12519;43.318;21.898;2024-03-06T01:58:42;10.9;89.0
21121;DHT22;12519;43.318;21.898;2024-03-06T02:03:25;11.0;88.0
21121;DHT22;12519;43.318;21.898;2024-03-06T02:08:04;11.0;88.0
21121;DHT22;12519;43.318;21.898;2024-03-06T02:12:43;11.1;88.0
21121;DHT22;12519;43.318;21.898;2024-03-06T02:17:20;11.1;88.0
21121;DHT22;12519;43.318;21.898;2024-03-06T02:21:56;11.0;88.0
21121;DHT22;12519;43.318;21.898;2024-03-06T02:26:32;11.0;88.0
21121;DHT22;12519;43.318;21.898;2024-03-06T02:31:08;11.0;88.0
21121;DHT22;12519;43.318;21.898;2024-03-06T02:35:44;11.0;88.0
21121;DHT22;12519;43.318;21.898;2024-03-06T02:40:21;10.8;88.0
21121;DHT22;12519;43.318;21.898;2024-03-06T02:44:57;10.8;88.0
21121;DHT22;12519;43.318;21.898;2024-03-06T02:49:34;10.7;88.0
21121;DHT22;12519;43.318;21.898;2024-03-06T02:54:10;10.7;88.0
21121;DHT22;12519;43.318;21.898;2024-03-06T02:58:47;10.7;88.0
21121;DHT22;12519;43.318;21.898;2024-03-06T03:03:23;10.6;89.0
21121;DHT22;12519;43.318;21.898;2024-03-06T03:07:59;10.6;89.0
21121;DHT22;12519;43.318;21.898;2024-03-06T03:12:38;10.5;90.0
21121;DHT22;12519;43.318;21.898;2024-03-06T03:17:14;10.5;90.0
21121;DHT22;12519;43.318;21.898;2024-03-06T03:21:50;12.0;88.0
21121;DHT22;12519;43.318;21.898;2024-03-06T03:26:26;12.0;88.0
21121;DHT22;12519;43.318;21.898;2024-03-06T03:31:03;13.6;86.0
21121;DHT22;12519;43.318;21.898;2024-03-06T03:35:40;13.6;86.0
21121;DHT22;12519;43.318;21.898;2024-03-06T03:40:17;12.3;86.0
21121;DHT22;12519;43.318;21.898;2024-03-06T03:44:53;12.3;86.0
21121;DHT22;12519;43.318;21.898;2024-03-06T03:49:29;11.0;86.0
21121;DHT22;12519;43.318;21.898;2024-03-06T03:54:06;11.0;86.0
21121;DHT22;12519;43.318;21.898;2024-03-06T03:58:43;11.0;86.0
21121;DHT22;12519;43.318;21.898;2024-03-06T04:03:19;10.7;87.0
21121;DHT22;12519;43.318;21.898;2024-03-06T04:07:55;10.7;87.0
21121;DHT22;12519;43.318;21.898;2024-03-06T04:12:31;10.4;88.0
21121;DHT22;12519;43.318;21.898;2024-03-06T04:17:08;10.4;88.0
21121;DHT22;12519;43.318;21.898;2024-03-06T04:21:44;10.4;89.0
21121;DHT22;12519;43.318;21.898;2024-03-06T04:26:20;10.4;89.0
21121;DHT22;12519;43.318;21.898;2024-03-06T04:30:56;10.3;89.0
21121;DHT22;12519;43.318;21.898;2024-03-06T04:35:33;10.3;89.0
21121;DHT22;12519;43.318;21.898;2024-03-06T04:40:10;10.4;89.0
21121;DHT22;12519;43.318;21.898;2024-03-06T04:44:48;10.4;89.0
21121;DHT22;12519;43.318;21.898;2024-03-06T04:49:24;10.4;89.0
21121;DHT22;12519;43.318;21.898;2024-03-06T04:54:02;10.4;89.0
21121;DHT22;12519;43.318;21.898;2024-03-06T04:58:38;10.4;89.0
21121;DHT22;12519;43.318;21.898;2024-03-06T05:03:16;10.2;89.0
21121;DHT22;12519;43.318;21.898;2024-03-06T05:07:52;10.2;89.0
21121;DHT22;12519;43.318;21.898;2024-03-06T05:12:28;10.1;88.0
21121;DHT22;12519;43.318;21.898;2024-03-06T05:17:04;10.1;88.0
21121;DHT22;12519;43.318;21.898;2024-03-06T05:21:41;10.0;89.0
21121;DHT22;12519;43.318;21.898;2024-03-06T05:26:16;10.0;89.0
21121;DHT22;12519;43.318;21.898;2024-03-06T05:30:52;9.9;89.0
21121;DHT22;12519;43.318;21.898;2024-03-06T05:35:28;9.9;89.0
21121;DHT22;12519;43.318;21.898;2024-03-06T05:40:07;9.9;89.0
21121;DHT22;12519;43.318;21.898;2024-03-06T05:44:46;9.9;89.0
21121;DHT22;12519;43.318;21.898;2024-03-06T05:49:22;9.9;89.0
21121;DHT22;12519;43.318;21.898;2024-03-06T05:53:58;9.9;88.0
21121;DHT22;12519;43.318;21.898;2024-03-06T05:58:34;9.9;88.0
21121;DHT22;12519;43.318;21.898;2024-03-06T06:03:10;9.8;89.0
21121;DHT22;12519;43.318;21.898;2024-03-06T06:07:46;9.8;89.0
21121;DHT22;12519;43.318;21.898;2024-03-06T06:12:23;9.6;90.0
21121;DHT22;12519;43.318;21.898;2024-03-06T06:16:59;9.6;90.0
21121;DHT22;12519;43.318;21.898;2024-03-06T06:21:36;9.3;92.0
21121;DHT22;12519;43.318;21.898;2024-03-06T06:26:14;9.3;92.0
21121;DHT22;12519;43.318;21.898;2024-03-06T06:30:50;9.0;94.0
21121;DHT22;12519;43.318;21.898;2024-03-06T06:35:26;9.0;94.0
21121;DHT22;12519;43.318;21.898;2024-03-06T06:40:03;9.2;94.0
21121;DHT22;12519;43.318;21.898;2024-03-06T06:44:41;9.2;94.0
21121;DHT22;12519;43.318;21.898;2024-03-06T06:49:17;9.2;94.0
21121;DHT22;12519;43.318;21.898;2024-03-06T06:53:53;9.5;94.0
21121;DHT22;12519;43.318;21.898;2024-03-06T06:58:29;9.5;94.0
21121;DHT22;12519;43.318;21.898;2024-03-06T07:03:06;10.2;94.0
21121;DHT22;12519;43.318;21.898;2024-03-06T07:07:42;10.2;94.0
21121;DHT22;12519;43.318;21.898;2024-03-06T07:12:19;10.8;93.0
21121;DHT22;12519;43.318;21.898;2024-03-06T07:16:55;10.8;93.0
21121;DHT22;12519;43.318;21.898;2024-03-06T07:21:31;11.7;90.0
21121;DHT22;12519;43.318;21.898;2024-03-06T07:26:07;11.7;90.0
21121;DHT22;12519;43.318;21.898;2024-03-06T07:30:43;12.6;88.0
21121;DHT22;12519;43.318;21.898;2024-03-06T07:35:19;12.6;88.0
21121;DHT22;12519;43.318;21.898;2024-03-06T07:39:56;13.4;87.0
21121;DHT22;12519;43.318;21.898;2024-03-06T07:44:32;13.4;87.0
21121;DHT22;12519;43.318;21.898;2024-03-06T07:49:08;13.4;87.0
21121;DHT22;12519;43.318;21.898;2024-03-06T07:53:44;14.1;87.0
21121;DHT22;12519;43.318;21.898;2024-03-06T07:58:20;14.1;87.0
21121;DHT22;12519;43.318;21.898;2024-03-06T08:02:56;15.3;83.0
21121;DHT22;12519;43.318;21.898;2024-03-06T08:07:32;15.3;83.0
21121;DHT22;12519;43.318;21.898;2024-03-06T08:12:08;16.5;79.0
21121;DHT22;12519;43.318;21.898;2024-03-06T08:16:45;16.5;79.0
21121;DHT22;12519;43.318;21.898;2024-03-06T08:21:22;16.3;78.0
21121;DHT22;12519;43.318;21.898;2024-03-06T08:25:58;16.3;78.0
21121;DHT22;12519;43.318;21.898;2024-03-06T08:30:35;16.1;77.0
21121;DHT22;12519;43.318;21.898;2024-03-06T08:35:13;16.1;77.0
21121;DHT22;12519;43.318;21.898;2024-03-06T08:39:49;16.1;77.0
21121;DHT22;12519;43.318;21.898;2024-03-06T08:44:26;15.2;79.0
21121;DHT22;12519;43.318;21.898;2024-03-06T08:49:02;15.2;79.0
21121;DHT22;12519;43.318;21.898;2024-03-06T08:53:39;14.2;82.0
21121;DHT22;12519;43.318;21.898;2024-03-06T08:58:16;14.2;82.0
21121;DHT22;12519;43.318;21.898;2024-03-06T09:02:53;15.3;80.0
21121;DHT22;12519;43.318;21.898;2024-03-06T09:07:30;15.3;80.0
21121;DHT22;12519;43.318;21.898;2024-03-06T09:12:09;16.4;78.0
21121;DHT22;12519;43.318;21.898;2024-03-06T09:16:47;16.4;78.0
21121;DHT22;12519;43.318;21.898;2024-03-06T09:21:23;17.0;76.0
21121;DHT22;12519;43.318;21.898;2024-03-06T09:25:58;17.0;76.0
21121;DHT22;12519;43.318;21.898;2024-03-06T09:30:35;17.5;75.0
21121;DHT22;12519;43.318;21.898;2024-03-06T09:35:11;17.5;75.0
21121;DHT22;12519;43.318;21.898;2024-03-06T09:39:47;17.5;75.0
21121;DHT22;12519;43.318;21.898;2024-03-06T09:44:24;16.6;76.0
21121;DHT22;12519;43.318;21.898;2024-03-06T09:49:02;16.6;76.0
21121;DHT22;12519;43.318;21.898;2024-03-06T09:53:41;15.7;76.0
21121;DHT22;12519;43.318;21.898;2024-03-06T09:58:18;15.7;76.0
21121;DHT22;12519;43.318;21.898;2024-03-06T10:02:58;14.2;80.0
21121;DHT22;12519;43.318;21.898;2024-03-06T10:07:38;14.2;80.0
21121;DHT22;12519;43.318;21.898;2024-03-06T10:12:17;12.8;84.0
21121;DHT22;12519;43.318;21.898;2024-03-06T10:16:56;12.8;84.0
21121;DHT22;12519;43.318;21.898;2024-03-06T10:21:35;12.6;85.0
21121;DHT22;12519;43.318;21.898;2024-03-06T10:26:12;12.6;85.0
21121;DHT22;12519;43.318;21.898;2024-03-06T10:30:49;12.3;87.0
21121;DHT22;12519;43.318;21.898;2024-03-06T10:35:26;12.3;87.0
21121;DHT22;12519;43.318;21.898;2024-03-06T10:40:03;12.3;87.0
21121;DHT22;12519;43.318;21.898;2024-03-06T10:44:55;12.3;88.0
21121;DHT22;12519;43.318;21.898;2024-03-06T10:49:38;12.3;88.0
21121;DHT22;12519;43.318;21.898;2024-03-06T10:54:19;12.3;88.0
21121;DHT22;12519;43.318;21.898;2024-03-06T10:59:03;12.3;88.0
21121;DHT22;12519;43.318;21.898;2024-03-06T11:03:47;12.9;87.0
21121;DHT22;12519;43.318;21.898;2024-03-06T11:08:25;12.9;87.0
21121;DHT22;12519;43.318;21.898;2024-03-06T11:13:09;13.5;86.0
21121;DHT22;12519;43.318;21.898;2024-03-06T11:18:41;13.5;86.0
21121;DHT22;12519;43.318;21.898;2024-03-06T11:23:20;15.0;84.0
21121;DHT22;12519;43.318;21.898;2024-03-06T11:28:05;15.0;84.0
21121;DHT22;12519;43.318;21.898;2024-03-06T11:32:57;16.6;81.0
21121;DHT22;12519;43.318;21.898;2024-03-06T11:37:36;16.6;81.0
21121;DHT22;12519;43.318;21.898;2024-03-06T11:42:13;16.9;79.0
21121;DHT22;12519;43.318;21.898;2024-03-06T11:46:58;16.9;79.0
21121;DHT22;12519;43.318;21.898;2024-03-06T11:51:35;17.2;77.0
21121;DHT22;12519;43.318;21.898;2024-03-06T11:56:11;17.2;77.0
21121;DHT22;12519;43.318;21.898;2024-03-06T12:00:48;18.0;76.0
21121;DHT22;12519;43.318;21.898;2024-03-06T12:05:23;18.0;76.0
21121;DHT22;12519;43.318;21.898;2024-03-06T12:09:59;18.0;76.0
21121;DHT22;12519;43.318;21.898;2024-03-06T12:14:36;18.8;75.0
21121;DHT22;12519;43.318;21.898;2024-03-06T12:19:12;18.8;75.0
21121;DHT22;12519;43.318;21.898;2024-03-06T12:23:49;19.1;74.0
21121;DHT22;12519;43.318;21.898;2024-03-06T12:28:25;19.1;74.0
21121;DHT22;12519;43.318;21.898;2024-03-06T12:33:03;19.4;73.0
21121;DHT22;12519;43.318;21.898;2024-03-06T12:37:39;19.4;73.0
21121;DHT22;12519;43.318;21.898;2024-03-06T12:42:15;18.7;73.0
21121;DHT22;12519;43.318;21.898;2024-03-06T12:46:52;18.7;73.0
21121;DHT22;12519;43.318;21.898;2024-03-06T12:51:28;18.0;73.0
21121;DHT22;12519;43.318;21.898;2024-03-06T12:56:06;18.0;73.0
21121;DHT22;12519;43.318;21.898;2024-03-06T13:00:45;17.8;74.0
21121;DHT22;12519;43.318;21.898;2024-03-06T13:05:23;17.8;74.0
21121;DHT22;12519;43.318;21.898;2024-03-06T13:09:59;17.8;74.0
21121;DHT22;12519;43.318;21.898;2024-03-06T13:14:35;17.5;74.0
21121;DHT22;12519;43.318;21.898;2024-03-06T13:19:12;17.5;74.0
21121;DHT22;12519;43.318;21.898;2024-03-06T13:23:48;17.4;74.0
21121;DHT22;12519;43.318;21.898;2024-03-06T13:28:24;17.4;74.0
21121;DHT22;12519;43.318;21.898;2024-03-06T13:33:00;17.4;74.0
21121;DHT22;12519;43.318;21.898;2024-03-06T13:37:38;17.4;74.0
21121;DHT22;12519;43.318;21.898;2024-03-06T13:42:14;17.4;73.0
21121;DHT22;12519;43.318;21.898;2024-03-06T13:46:51;17.4;73.0
21121;DHT22;12519;43.318;21.898;2024-03-06T13:51:27;17.5;73.0
21121;DHT22;12519;43.318;21.898;2024-03-06T13:56:05;17.5;73.0
21121;DHT22;12519;43.318;21.898;2024-03-06T14:00:43;18.2;73.0
21121;DHT22;12519;43.318;21.898;2024-03-06T14:05:20;18.2;73.0
21121;DHT22;12519;43.318;21.898;2024-03-06T14:09:57;18.2;73.0
21121;DHT22;12519;43.318;21.898;2024-03-06T14:14:33;18.9;74.0
21121;DHT22;12519;43.318;21.898;2024-03-06T14:19:10;18.9;74.0
21121;DHT22;12519;43.318;21.898;2024-03-06T14:23:48;19.5;71.0
21121;DHT22;12519;43.318;21.898;2024-03-06T14:28:24;19.5;71.0
21121;DHT22;12519;43.318;21.898;2024-03-06T14:33:00;20.1;69.0
21121;DHT22;12519;43.318;21.898;2024-03-06T14:37:37;20.1;69.0
21121;DHT22;12519;43.318;21.898;2024-03-06T14:42:13;20.3;69.0
21121;DHT22;12519;43.318;21.898;2024-03-06T14:46:49;20.3;69.0
21121;DHT22;12519;43.318;21.898;2024-03-06T14:51:24;20.5;68.0
21121;DHT22;12519;43.318;21.898;2024-03-06T14:56:01;20.5;68.0
21121;DHT22;12519;43.318;21.898;2024-03-06T15:00:39;20.5;68.0
21121;DHT22;12519;43.318;21.898;2024-03-06T15:05:15;20.4;68.0
21121;DHT22;12519;43.318;21.898;2024-03-06T15:09:53;20.4;68.0
21121;DHT22;12519;43.318;21.898;2024-03-06T15:14:29;20.4;68.0
21121;DHT22;12519;43.318;21.898;2024-03-06T15:19:05;20.4;68.0
21121;DHT22;12519;43.318;21.898;2024-03-06T15:23:42;19.8;68.0
21121;DHT22;12519;43.318;21.898;2024-03-06T15:28:18;19.8;68.0
21121;DHT22;12519;43.318;21.898;2024-03-06T15:32:54;19.3;69.0
21121;DHT22;12519;43.318;21.898;2024-03-06T15:37:31;19.3;69.0
21121;DHT22;12519;43.318;21.898;2024-03-06T15:42:07;18.3;71.0
21121;DHT22;12519;43.318;21.898;2024-03-06T15:46:43;18.3;71.0
21121;DHT22;12519;43.318;21.898;2024-03-06T15:51:19;17.3;73.0
21121;DHT22;12519;43.318;21.898;2024-03-06T15:55:56;17.3;73.0
21121;DHT22;12519;43.318;21.898;2024-03-06T16:00:32;17.3;73.0
21121;DHT22;12519;43.318;21.898;2024-03-06T16:05:08;16.8;74.0
21121;DHT22;12519;43.318;21.898;2024-03-06T16:09:44;16.8;74.0
21121;DHT22;12519;43.318;21.898;2024-03-06T16:14:21;16.4;76.0
21121;DHT22;12519;43.318;21.898;2024-03-06T16:18:56;16.4;76.0
21121;DHT22;12519;43.318;21.898;2024-03-06T16:23:33;16.2;77.0
21121;DHT22;12519;43.318;21.898;2024-03-06T16:28:09;16.2;77.0
21121;DHT22;12519;43.318;21.898;2024-03-06T16:32:46;16.0;78.0
21121;DHT22;12519;43.318;21.898;2024-03-06T16:37:22;16.0;78.0
21121;DHT22;12519;43.318;21.898;2024-03-06T16:41:59;15.8;78.0
21121;DHT22;12519;43.318;21.898;2024-03-06T16:46:36;15.8;78.0
21121;DHT22;12519;43.318;21.898;2024-03-06T16:51:17;15.6;79.0
21121;DHT22;12519;43.318;21.898;2024-03-06T16:55:54;15.6;79.0
21121;DHT22;12519;43.318;21.898;2024-03-06T17:00:31;15.6;79.0
21121;DHT22;12519;43.318;21.898;2024-03-06T17:05:09;15.4;80.0
21121;DHT22;12519;43.318;21.898;2024-03-06T17:09:45;15.4;80.0
21121;DHT22;12519;43.318;21.898;2024-03-06T17:14:22;15.3;80.0
21121;DHT22;12519;43.318;21.898;2024-03-06T17:18:58;15.3;80.0
21121;DHT22;12519;43.318;21.898;2024-03-06T17:23:35;15.2;81.0
21121;DHT22;12519;43.318;21.898;2024-03-06T17:28:11;15.2;81.0
21121;DHT22;12519;43.318;21.898;2024-03-06T17:32:47;15.0;81.0
21121;DHT22;12519;43.318;21.898;2024-03-06T17:37:25;15.0;81.0
21121;DHT22;12519;43.318;21.898;2024-03-06T17:42:01;15.0;81.0
21121;DHT22;12519;43.318;21.898;2024-03-06T17:46:38;15.0;81.0
21121;DHT22;12519;43.318;21.898;2024-03-06T17:51:14;14.9;82.0
21121;DHT22;12519;43.318;21.898;2024-03-06T17:55:51;14.9;82.0
21121;DHT22;12519;43.318;21.898;2024-03-06T18:00:27;14.9;82.0
21121;DHT22;12519;43.318;21.898;2024-03-06T18:05:04;14.8;83.0
21121;DHT22;12519;43.318;21.898;2024-03-06T18:09:41;14.8;83.0
21121;DHT22;12519;43.318;21.898;2024-03-06T18:14:18;14.6;84.0
21121;DHT22;12519;43.318;21.898;2024-03-06T18:18:54;14.6;84.0
21121;DHT22;12519;43.318;21.898;2024-03-06T18:23:30;14.4;85.0
21121;DHT22;12519;43.318;21.898;2024-03-06T18:28:06;14.4;85.0
21121;DHT22;12519;43.318;21.898;2024-03-06T18:32:42;14.3;86.0
21121;DHT22;12519;43.318;21.898;2024-03-06T18:37:18;14.3;86.0
21121;DHT22;12519;43.318;21.898;2024-03-06T18:41:55;14.3;87.0
21121;DHT22;12519;43.318;21.898;2024-03-06T18:46:31;14.3;87.0
21121;DHT22;12519;43.318;21.898;2024-03-06T18:51:07;14.3;87.0
21121;DHT22;12519;43.318;21.898;2024-03-06T18:55:43;14.3;88.0
21121;DHT22;12519;43.318;21.898;2024-03-06T19:00:20;14.3;88.0
21121;DHT22;12519;43.318;21.898;2024-03-06T19:04:56;14.2;89.0
21121;DHT22;12519;43.318;21.898;2024-03-06T19:09:33;14.2;89.0
21121;DHT22;12519;43.318;21.898;2024-03-06T19:14:10;14.2;90.0
21121;DHT22;12519;43.318;21.898;2024-03-06T19:18:48;14.2;90.0
21121;DHT22;12519;43.318;21.898;2024-03-06T19:23:25;14.0;91.0
21121;DHT22;12519;43.318;21.898;2024-03-06T19:28:01;14.0;91.0
21121;DHT22;12519;43.318;21.898;2024-03-06T19:32:40;13.8;92.0
21121;DHT22;12519;43.318;21.898;2024-03-06T19:37:16;13.8;92.0
21121;DHT22;12519;43.318;21.898;2024-03-06T19:41:53;13.8;93.0
21121;DHT22;12519;43.318;21.898;2024-03-06T19:46:30;13.8;93.0
21121;DHT22;12519;43.318;21.898;2024-03-06T19:51:06;13.8;93.0
21121;DHT22;12519;43.318;21.898;2024-03-06T19:55:43;13.8;93.0
21121;DHT22;12519;43.318;21.898;2024-03-06T20:00:19;13.8;93.0
21121;DHT22;12519;43.318;21.898;2024-03-06T20:04:56;13.6;94.0
21121;DHT22;12519;43.318;21.898;2024-03-06T20:09:32;13.6;94.0
21121;DHT22;12519;43.318;21.898;2024-03-06T20:14:08;13.5;94.0
21121;DHT22;12519;43.318;21.898;2024-03-06T20:18:44;13.5;94.0
21121;DHT22;12519;43.318;21.898;2024-03-06T20:23:21;13.4;95.0
21121;DHT22;12519;43.318;21.898;2024-03-06T20:27:57;13.4;95.0
21121;DHT22;12519;43.318;21.898;2024-03-06T20:32:33;13.4;95.0
21121;DHT22;12519;43.318;21.898;2024-03-06T20:37:10;13.4;95.0
21121;DHT22;12519;43.318;21.898;2024-03-06T20:41:46;13.4;95.0
21121;DHT22;12519;43.318;21.898;2024-03-06T20:46:22;13.4;95.0
21121;DHT22;12519;43.318;21.898;2024-03-06T20:50:58;13.4;95.0
21121;DHT22;12519;43.318;21.898;2024-03-06T20:55:35;13.5;96.0
21121;DHT22;12519;43.318;21.898;2024-03-06T21:00:12;13.5;96.0
21121;DHT22;12519;43.318;21.898;2024-03-06T21:04:49;13.4;96.0
21121;DHT22;12519;43.318;21.898;2024-03-06T21:09:25;13.4;96.0
21121;DHT22;12519;43.318;21.898;2024-03-06T21:14:01;13.4;97.0
21121;DHT22;12519;43.318;21.898;2024-03-06T21:18:37;13.4;97.0
21121;DHT22;12519;43.318;21.898;2024-03-06T21:23:14;13.4;97.0
21121;DHT22;12519;43.318;21.898;2024-03-06T21:27:49;13.4;97.0
21121;DHT22;12519;43.318;21.898;2024-03-06T21:32:26;13.4;97.0
21121;DHT22;12519;43.318;21.898;2024-03-06T21:37:03;13.4;97.0
21121;DHT22;12519;43.318;21.898;2024-03-06T21:41:40;13.2;98.0
21121;DHT22;12519;43.318;21.898;2024-03-06T21:46:17;13.2;98.0
21121;DHT22;12519;43.318;21.898;2024-03-06T21:50:54;13.2;98.0
21121;DHT22;12519;43.318;21.898;2024-03-06T21:55:32;13.1;99.0
21121;DHT22;12519;43.318;21.898;2024-03-06T22:00:10;13.1;99.0
21121;DHT22;12519;43.318;21.898;2024-03-06T22:04:52;13.0;99.0
21121;DHT22;12519;43.318;21.898;2024-03-06T22:09:29;13.0;99.0
21121;DHT22;12519;43.318;21.898;2024-03-06T22:14:06;12.9;100.0
21121;DHT22;12519;43.318;21.898;2024-03-06T22:18:44;12.9;100.0
21121;DHT22;12519;43.318;21.898;2024-03-06T22:23:20;13.0;100.0
21121;DHT22;12519;43.318;21.898;2024-03-06T22:27:56;13.0;100.0
21121;DHT22;12519;43.318;21.898;2024-03-06T22:32:32;13.1;99.0
21121;DHT22;12519;43.318;21.898;2024-03-06T22:37:08;13.1;99.0
21121;DHT22;12519;43.318;21.898;2024-03-06T22:41:44;13.1;99.0
21121;DHT22;12519;43.318;21.898;2024-03-06T22:46:21;13.0;100.0
21121;DHT22;12519;43.318;21.898;2024-03-06T22:50:58;13.0;100.0
21121;DHT22;12519;43.318;21.898;2024-03-06T22:55:34;12.9;100.0
21121;DHT22;12519;43.318;21.898;2024-03-06T23:00:11;12.9;100.0
21121;DHT22;12519;43.318;21.898;2024-03-06T23:04:48;12.9;100.0
21121;DHT22;12519;43.318;21.898;2024-03-06T23:09:25;12.9;100.0
21121;DHT22;12519;43.318;21.898;2024-03-06T23:14:01;12.9;100.0
21121;DHT22;12519;43.318;21.898;2024-03-06T23:18:37;12.9;100.0
21121;DHT22;12519;43.318;21.898;2024-03-06T23:23:14;12.8;100.0
21121;DHT22;12519;43.318;21.898;2024-03-06T23:27:50;12.8;100.0
21121;DHT22;12519;43.318;21.898;2024-03-06T23:32:26;12.8;100.0
21121;DHT22;12519;43.318;21.898;2024-03-06T23:37:03;12.8;100.0
21121;DHT22;12519;43.318;21.898;2024-03-06T23:41:39;12.8;100.0
21121;DHT22;12519;43.318;21.898;2024-03-06T23:46:16;12.8;100.0
21121;DHT22;12519;43.318;21.898;2024-03-06T23:50:52;12.8;100.0
21121;DHT22;12519;43.318;21.898;2024-03-06T23:55:28;12.7;100.0
